Time;durP1;ratioP1;P1;durP2;ratioP2;P2;SDS_P1;SDS_P2;PMS_P1;PMS_P2;Temp;Humidity;BMP_temperature;BMP_pressure;BME280_temperature;BME280_humidity;BME280_pressure;Samples;Min_cycle;Max_cycle;Signal;HPM_P1;HPM_P2
2023/10/06 00:01:25;;;;;;;1.10;0.80;;;;;;;21.67;45.26;101528.53;4615693;27;21257;-62
2023/10/06 00:03:36;;;;;;;1.00;0.90;;;;;;;21.68;45.03;101530.22;4616087;27;20036;-62
2023/10/06 00:05:48;;;;;;;0.80;0.70;;;;;;;21.68;45.12;101535.94;4616352;27;20183;-62
2023/10/06 00:07:58;;;;;;;1.75;0.90;;;;;;;21.66;44.67;101544.06;4616038;27;20031;-62
2023/10/06 00:10:19;;;;;;;1.58;1.08;;;;;;;21.66;44.91;101552.69;4616029;27;20024;-62
2023/10/06 00:12:31;;;;;;;1.58;0.70;;;;;;;21.67;44.80;101544.94;4615711;27;20031;-62
2023/10/06 00:14:48;;;;;;;2.25;1.00;;;;;;;21.60;44.95;101539.75;4615720;27;20035;-62
2023/10/06 00:16:59;;;;;;;0.90;0.80;;;;;;;21.65;44.89;101533.78;4615710;27;20590;-62
2023/10/06 00:19:26;;;;;;;2.00;0.90;;;;;;;21.69;44.76;101548.28;4613865;27;20038;-62
2023/10/06 00:21:38;;;;;;;0.88;0.70;;;;;;;21.65;44.55;101548.16;4616781;27;20154;-62
2023/10/06 00:23:49;;;;;;;1.33;0.80;;;;;;;21.66;44.61;101554.75;4615191;27;20062;-62
2023/10/06 00:26:00;;;;;;;1.40;0.75;;;;;;;21.68;44.23;101563.84;4616067;27;20893;-62
2023/10/06 00:28:20;;;;;;;1.42;0.82;;;;;;;21.67;44.74;101559.28;4615116;27;20074;-62
2023/10/06 00:30:31;;;;;;;1.02;0.80;;;;;;;21.67;44.50;101553.53;4630997;27;20027;-62
2023/10/06 00:32:42;;;;;;;1.52;0.75;;;;;;;21.67;44.59;101557.28;4605214;27;20584;-62
2023/10/06 00:35:15;;;;;;;1.30;0.70;;;;;;;21.68;44.50;101555.22;4603050;27;20035;-62
2023/10/06 00:37:25;;;;;;;1.20;0.80;;;;;;;21.66;44.22;101549.81;4603632;27;20104;-62
2023/10/06 00:39:36;;;;;;;0.93;0.80;;;;;;;21.65;44.02;101551.03;4614599;27;20092;-62
2023/10/06 00:41:47;;;;;;;1.27;0.88;;;;;;;21.62;44.30;101545.13;4614857;27;20122;-62
2023/10/06 00:43:57;;;;;;;0.77;0.77;;;;;;;21.64;44.15;101557.97;4617446;27;20115;-62
2023/10/06 00:46:07;;;;;;;1.75;0.82;;;;;;;21.65;44.45;101553.91;4615552;27;20040;-62
2023/10/06 00:48:18;;;;;;;1.13;0.95;;;;;;;21.65;44.35;101548.16;4613788;27;20039;-62
2023/10/06 00:50:32;;;;;;;1.67;0.75;;;;;;;21.54;44.22;101528.81;4615532;27;20925;-62
2023/10/06 00:52:43;;;;;;;1.65;0.90;;;;;;;21.64;43.96;101549.34;4617373;27;20043;-62
2023/10/06 00:54:53;;;;;;;1.20;0.80;;;;;;;21.65;43.83;101550.19;4613893;27;20115;-62
2023/10/06 00:57:10;;;;;;;1.25;0.90;;;;;;;21.62;43.49;101540.25;4615368;27;20108;-62
2023/10/06 00:59:23;;;;;;;1.88;0.95;;;;;;;21.65;43.58;101547.31;4613951;27;20032;-62
2023/10/06 01:01:34;;;;;;;1.60;0.70;;;;;;;21.64;43.98;101546.47;4616718;27;20084;-62
2023/10/06 01:03:48;;;;;;;1.70;0.70;;;;;;;21.63;43.71;101544.78;4614845;27;20552;-62
2023/10/06 01:06:05;;;;;;;2.00;0.93;;;;;;;21.63;43.26;101536.16;4601424;27;20066;-62
2023/10/06 01:08:16;;;;;;;0.90;0.70;;;;;;;21.65;43.43;101535.81;4614644;27;20039;-62
2023/10/06 01:10:34;;;;;;;1.98;0.90;;;;;;;21.60;43.33;101522.50;4614911;27;20492;-62
2023/10/06 01:12:52;;;;;;;1.38;0.60;;;;;;;21.63;43.27;101527.53;4615164;27;20080;-62
2023/10/06 01:15:05;;;;;;;1.52;0.80;;;;;;;21.63;43.49;101527.53;4630716;27;20707;-62
2023/10/06 01:17:16;;;;;;;1.17;0.80;;;;;;;21.64;43.12;101526.38;4615873;27;20567;-62
2023/10/06 01:19:27;;;;;;;1.52;0.82;;;;;;;21.63;43.25;101521.78;4612564;27;20039;-62
2023/10/06 01:21:40;;;;;;;1.25;0.70;;;;;;;21.63;42.88;101521.78;4611766;27;20035;-62
2023/10/06 01:23:50;;;;;;;0.93;0.70;;;;;;;21.60;42.79;101508.13;4613703;27;20028;-62
2023/10/06 01:26:02;;;;;;;1.10;0.85;;;;;;;21.58;43.05;101501.91;4613718;27;20035;-62
2023/10/06 01:28:13;;;;;;;1.48;1.00;;;;;;;21.64;43.33;101512.00;4613445;27;20859;-62
2023/10/06 01:30:23;;;;;;;1.10;0.85;;;;;;;21.62;42.92;101504.91;4615193;27;20031;-62
2023/10/06 01:32:34;;;;;;;1.48;0.77;;;;;;;21.61;42.65;101506.94;4618385;27;20027;-62
2023/10/06 01:34:45;;;;;;;1.40;0.80;;;;;;;21.62;42.89;101507.78;4617213;27;20027;-62
2023/10/06 01:36:56;;;;;;;1.40;0.75;;;;;;;21.62;42.92;101508.63;4633976;27;20077;-62
2023/10/06 01:39:16;;;;;;;0.93;0.73;;;;;;;21.53;42.91;101486.94;4618462;27;20094;-62
2023/10/06 01:41:26;;;;;;;0.98;0.80;;;;;;;21.61;42.95;101489.69;4619593;27;20770;-62
2023/10/06 01:43:38;;;;;;;1.48;0.80;;;;;;;21.58;42.76;101481.78;4607429;27;20020;-62
2023/10/06 01:45:49;;;;;;;1.02;0.90;;;;;;;21.60;43.03;101488.03;4618225;27;20042;-62
2023/10/06 01:48:46;;;;;;;1.30;0.90;;;;;;;21.63;43.07;101486.47;4618070;27;21468;-62
2023/10/06 01:50:31;;;;;;;1.42;0.90;;;;;;;21.61;42.83;101492.56;4607096;27;20051;-62
2023/10/06 01:52:41;;;;;;;0.77;0.77;;;;;;;21.57;43.07;101497.34;4618218;27;20019;-62
2023/10/06 01:54:52;;;;;;;1.50;0.77;;;;;;;21.60;42.88;101502.41;4617883;27;20039;-63
2023/10/06 01:57:06;;;;;;;1.25;0.82;;;;;;;21.62;42.70;101497.16;4618851;27;20514;-62
2023/10/06 01:59:17;;;;;;;1.98;0.90;;;;;;;21.57;42.60;101483.00;4619658;27;20894;-62
2023/10/06 02:01:27;;;;;;;1.77;0.90;;;;;;;21.61;42.50;101489.69;4618387;27;20058;-62
2023/10/06 02:03:38;;;;;;;2.05;0.80;;;;;;;21.56;42.74;101477.59;4619158;27;20019;-62
2023/10/06 02:05:54;;;;;;;0.90;0.70;;;;;;;21.61;42.41;101492.56;4606745;27;20830;-62
2023/10/06 02:08:14;;;;;;;1.20;0.90;;;;;;;21.57;42.69;101485.88;4616726;27;20042;-62
2023/10/06 02:10:24;;;;;;;0.82;0.63;;;;;;;21.57;42.67;101494.47;4617832;27;20026;-62
2023/10/06 02:12:36;;;;;;;1.50;0.70;;;;;;;21.58;42.64;101496.16;4619610;27;20019;-62
2023/10/06 02:14:47;;;;;;;1.02;0.70;;;;;;;21.53;42.77;101487.75;4617838;27;20038;-62
2023/10/06 02:17:04;;;;;;;1.15;0.80;;;;;;;21.56;43.05;101487.06;4619173;27;20039;-62
2023/10/06 02:19:18;;;;;;;1.58;0.80;;;;;;;21.59;42.64;101480.63;4617645;27;20879;-62
2023/10/06 02:21:29;;;;;;;2.13;0.80;;;;;;;21.58;42.17;101476.03;4616521;27;20035;-62
2023/10/06 02:23:41;;;;;;;0.73;0.70;;;;;;;21.58;42.23;101478.91;4618187;27;20104;-62
2023/10/06 02:25:51;;;;;;;1.52;0.80;;;;;;;21.60;42.27;101484.31;4617004;27;20049;-62
2023/10/06 02:28:05;;;;;;;0.93;0.80;;;;;;;21.57;42.52;101483.00;4617919;27;20039;-62
2023/10/06 02:30:19;;;;;;;1.17;0.80;;;;;;;21.59;42.44;101486.34;4616207;27;20030;-62
2023/10/06 02:32:30;;;;;;;1.35;0.70;;;;;;;21.54;42.20;101475.09;4606670;27;20036;-62
2023/10/06 02:34:40;;;;;;;1.90;0.90;;;;;;;21.56;42.68;101475.56;4616989;27;20031;-62
2023/10/06 02:36:54;;;;;;;0.70;0.70;;;;;;;21.57;42.48;101473.53;4618575;27;20460;-62
2023/10/06 02:39:06;;;;;;;1.20;0.80;;;;;;;21.49;42.08;101452.31;4606039;27;20596;-62
2023/10/06 02:41:18;;;;;;;0.90;0.80;;;;;;;21.53;42.44;101459.03;4613987;27;20039;-62
2023/10/06 02:43:30;;;;;;;0.93;0.70;;;;;;;21.56;42.41;101458.34;4615653;27;20118;-62
2023/10/06 02:45:41;;;;;;;1.00;0.70;;;;;;;21.48;42.62;101450.66;4616132;27;20038;-62
2023/10/06 02:47:52;;;;;;;1.30;0.80;;;;;;;21.55;42.10;101456.63;4618350;27;20510;-62
2023/10/06 02:50:07;;;;;;;1.20;0.80;;;;;;;21.57;42.43;101468.63;4617419;27;20487;-62
2023/10/06 02:52:20;;;;;;;1.48;0.80;;;;;;;21.53;42.21;101461.91;4606014;27;20042;-62
2023/10/06 02:54:30;;;;;;;1.30;1.20;;;;;;;21.52;41.92;101468.00;4617772;27;20023;-62
2023/10/06 02:56:43;;;;;;;1.08;0.80;;;;;;;21.54;42.27;101475.09;4617289;27;20043;-62
2023/10/06 02:58:58;;;;;;;1.10;0.80;;;;;;;21.56;42.18;101471.84;4617059;27;20171;-62
2023/10/06 03:01:11;;;;;;;0.90;0.75;;;;;;;21.53;41.85;101464.75;4605428;27;20779;-62
2023/10/06 03:03:27;;;;;;;1.63;0.73;;;;;;;21.56;42.04;101472.72;4615221;27;20035;-62
2023/10/06 03:05:39;;;;;;;1.35;0.85;;;;;;;21.56;41.98;101469.84;4616539;27;20109;-62
2023/10/06 03:07:50;;;;;;;1.10;0.80;;;;;;;21.51;41.88;101449.09;4616487;27;20055;-62
2023/10/06 03:10:01;;;;;;;1.90;0.80;;;;;;;21.53;42.28;101461.91;4600030;27;20134;-62
2023/10/06 03:12:14;;;;;;;1.33;0.80;;;;;;;21.56;41.85;101461.22;4618816;27;20026;-62
2023/10/06 03:14:37;;;;;;;2.55;0.90;;;;;;;21.55;41.65;101461.56;4598245;27;20039;-62
2023/10/06 03:16:51;;;;;;;1.10;0.80;;;;;;;21.53;41.83;101459.03;4613649;27;20103;-62
2023/10/06 03:19:03;;;;;;;1.35;0.80;;;;;;;21.49;41.91;101458.06;4587356;27;20119;-62
2023/10/06 03:21:15;;;;;;;1.38;0.90;;;;;;;21.51;41.60;101455.69;4614490;27;20043;-62
2023/10/06 03:25:37;;;;;;;1.20;0.90;;;;;;;21.52;41.57;101454.47;4617519;27;20036;-62
2023/10/06 03:27:52;;;;;;;1.30;0.93;;;;;;;21.51;41.70;101461.44;4605009;27;20042;-62
2023/10/06 03:30:27;;;;;;;1.58;0.90;;;;;;;21.51;42.08;101452.81;4615687;27;20077;-62
2023/10/06 03:32:41;;;;;;;0.95;0.80;;;;;;;21.51;42.10;101461.44;4616197;27;20031;-62
2023/10/06 03:34:54;;;;;;;0.82;0.80;;;;;;;21.53;42.23;101470.50;4616030;27;21472;-62
2023/10/06 03:37:10;;;;;;;1.40;0.80;;;;;;;21.50;42.04;101458.91;4624119;27;20035;-62
2023/10/06 03:39:30;;;;;;;1.33;0.90;;;;;;;21.45;42.38;101451.34;4613365;27;20108;-62
2023/10/06 03:41:46;;;;;;;1.92;0.98;;;;;;;21.53;41.98;101470.50;4615114;27;20043;-62
2023/10/06 03:44:00;;;;;;;1.13;0.90;;;;;;;21.53;42.03;101472.56;4622318;27;20030;-62
2023/10/06 03:46:11;;;;;;;1.65;0.90;;;;;;;21.53;42.11;101467.63;4616054;27;20746;-62
2023/10/06 03:48:24;;;;;;;1.63;0.90;;;;;;;21.49;42.27;101458.06;4615916;27;20060;-62
2023/10/06 03:50:39;;;;;;;1.10;0.80;;;;;;;21.53;42.11;101472.56;4617380;27;20031;-62
2023/10/06 03:52:50;;;;;;;1.02;0.70;;;;;;;21.51;41.93;101460.56;4617853;27;20073;-62
2023/10/06 03:55:05;;;;;;;1.90;1.20;;;;;;;21.52;41.70;101463.09;4613814;27;20039;-62
2023/10/06 03:57:19;;;;;;;1.45;0.70;;;;;;;21.47;41.91;101463.31;4614527;27;20970;-62
2023/10/06 03:59:30;;;;;;;1.33;0.90;;;;;;;21.49;41.96;101463.81;4616126;27;20039;-62
2023/10/06 04:01:44;;;;;;;0.88;0.75;;;;;;;21.50;42.48;101462.59;4617874;27;20446;-62
2023/10/06 04:03:58;;;;;;;0.70;0.70;;;;;;;21.51;42.09;101461.44;4616684;27;20035;-61
2023/10/06 04:06:12;;;;;;;2.28;0.90;;;;;;;21.46;42.32;101455.03;4616676;27;20031;-61
2023/10/06 04:08:24;;;;;;;1.10;0.90;;;;;;;21.51;42.75;101460.56;4616213;27;20843;-62
2023/10/06 04:10:36;;;;;;;0.88;0.80;;;;;;;21.48;42.88;101450.66;4616272;27;20027;-62
2023/10/06 04:12:47;;;;;;;1.10;0.80;;;;;;;21.50;42.51;101456.03;4615975;27;20039;-61
2023/10/06 04:14:57;;;;;;;1.85;0.90;;;;;;;21.48;42.63;101442.03;4604158;27;20020;-62
2023/10/06 04:17:09;;;;;;;1.10;0.82;;;;;;;21.47;42.55;101442.38;4616573;27;20040;-62
2023/10/06 04:19:20;;;;;;;1.83;1.00;;;;;;;21.48;42.68;101444.91;4630458;27;21583;-62
2023/10/06 04:21:30;;;;;;;1.02;0.70;;;;;;;21.50;42.81;101444.56;4604866;27;20044;-62
2023/10/06 04:23:43;;;;;;;0.75;0.70;;;;;;;21.48;42.81;101444.91;4616228;27;20119;-62
2023/10/06 04:25:57;;;;;;;1.13;0.80;;;;;;;21.45;43.38;101434.13;4615007;27;20102;-61
2023/10/06 04:28:11;;;;;;;1.40;0.90;;;;;;;21.46;43.52;101441.53;4616514;27;20031;-62
2023/10/06 04:30:21;;;;;;;1.38;0.88;;;;;;;21.47;43.76;101442.38;4632242;27;20034;-61
2023/10/06 04:32:32;;;;;;;1.27;0.80;;;;;;;21.46;42.99;101441.53;4599082;27;20019;-62
2023/10/06 04:34:43;;;;;;;1.30;0.88;;;;;;;21.49;43.10;101429.34;4615779;27;20035;-62
2023/10/06 04:36:56;;;;;;;1.63;0.90;;;;;;;21.44;42.98;101426.69;4616267;27;20032;-61
2023/10/06 04:39:11;;;;;;;1.45;0.93;;;;;;;21.46;43.21;101430.03;4618114;27;20723;-62
2023/10/06 04:41:21;;;;;;;1.45;0.90;;;;;;;21.48;42.51;101426.81;4616285;27;20039;-61
2023/10/06 04:43:32;;;;;;;1.63;0.90;;;;;;;21.30;42.69;101403.16;4617358;27;20031;-61
2023/10/06 04:45:42;;;;;;;1.48;0.80;;;;;;;21.45;42.80;101425.50;4599467;27;20053;-61
2023/10/06 04:47:55;;;;;;;1.10;0.90;;;;;;;21.46;42.54;101423.44;4615630;27;20100;-63
2023/10/06 04:50:09;;;;;;;1.00;0.77;;;;;;;21.47;42.38;101420.22;4616128;27;20028;-61
2023/10/06 04:52:20;;;;;;;1.98;0.88;;;;;;;21.45;43.09;101428.38;4615964;27;20031;-61
2023/10/06 04:54:30;;;;;;;1.65;0.82;;;;;;;21.46;42.82;101435.78;4616611;27;20023;-61
2023/10/06 04:56:40;;;;;;;1.33;0.80;;;;;;;21.44;42.57;101438.16;4615609;27;20039;-62
2023/10/06 04:58:53;;;;;;;1.23;0.80;;;;;;;21.45;42.89;101437.00;4615944;27;20475;-62
2023/10/06 05:01:04;;;;;;;1.75;0.90;;;;;;;21.33;43.00;101410.22;4615671;27;20126;-61
2023/10/06 05:03:14;;;;;;;1.77;0.98;;;;;;;21.45;42.60;101428.38;4616565;27;20023;-61
2023/10/06 05:05:26;;;;;;;1.38;0.70;;;;;;;21.44;43.36;101420.09;4613322;27;20020;-61
2023/10/06 05:07:38;;;;;;;2.10;0.88;;;;;;;21.47;43.00;101431.72;4615948;27;20031;-62
2023/10/06 05:09:48;;;;;;;2.00;0.80;;;;;;;21.42;43.14;101417.56;4615160;27;20071;-62
2023/10/06 05:11:59;;;;;;;2.30;0.80;;;;;;;21.44;43.41;101411.47;4632089;27;20109;-61
2023/10/06 05:14:09;;;;;;;1.02;0.80;;;;;;;21.44;42.67;101415.19;4616082;27;20148;-62
2023/10/06 05:16:19;;;;;;;1.27;0.90;;;;;;;21.43;42.39;101412.66;4616002;27;20030;-61
2023/10/06 05:18:32;;;;;;;1.58;0.88;;;;;;;21.42;42.36;101414.69;4615084;27;20078;-61
2023/10/06 05:20:43;;;;;;;1.52;0.93;;;;;;;21.43;42.34;101425.00;4615024;27;20147;-61
2023/10/06 05:22:53;;;;;;;1.25;0.88;;;;;;;21.40;42.53;101414.22;4615176;27;20092;-61
2023/10/06 05:25:04;;;;;;;1.30;0.80;;;;;;;21.44;42.61;101415.19;4616578;27;20490;-63
2023/10/06 05:27:16;;;;;;;1.00;0.90;;;;;;;21.38;42.24;101398.53;4614559;27;20058;-61
2023/10/06 05:29:30;;;;;;;1.95;0.80;;;;;;;21.42;42.68;101405.25;4615642;27;20043;-62
2023/10/06 05:31:40;;;;;;;2.63;1.05;;;;;;;21.41;42.29;101415.06;4615413;27;20375;-62
2023/10/06 05:33:51;;;;;;;1.17;0.90;;;;;;;21.42;42.56;101408.94;4616133;27;20124;-62
2023/10/06 05:36:11;;;;;;;2.15;0.75;;;;;;;21.39;42.58;101412.53;4613916;27;20422;-62
2023/10/06 05:38:22;;;;;;;0.88;0.80;;;;;;;21.40;42.35;101422.00;4616107;27;20031;-62
2023/10/06 05:40:32;;;;;;;1.20;0.82;;;;;;;21.38;42.56;101425.22;4615427;27;20051;-62
2023/10/06 05:42:43;;;;;;;1.42;1.00;;;;;;;21.41;42.53;101433.13;4614969;27;20381;-62
2023/10/06 05:44:54;;;;;;;1.48;0.90;;;;;;;21.41;42.66;101427.38;4614097;27;20027;-62
2023/10/06 05:47:08;;;;;;;1.73;0.73;;;;;;;21.40;42.78;101437.22;4615425;27;20036;-61
2023/10/06 05:49:21;;;;;;;1.92;1.00;;;;;;;21.41;42.20;101436.00;4615176;27;20087;-62
2023/10/06 05:51:33;;;;;;;1.40;0.90;;;;;;;21.41;42.24;101444.63;4613925;27;20027;-62
2023/10/06 05:53:44;;;;;;;2.78;1.00;;;;;;;21.41;42.66;101444.63;4614050;27;20045;-62
2023/10/06 05:55:54;;;;;;;1.33;0.85;;;;;;;21.42;42.43;101433.97;4613757;27;20403;-62
2023/10/06 05:58:09;;;;;;;1.17;0.85;;;;;;;21.42;42.51;101439.72;4614625;27;20062;-61
2023/10/06 06:00:20;;;;;;;1.95;1.00;;;;;;;21.39;42.78;101429.75;4614161;27;20193;-61
2023/10/06 06:02:36;;;;;;;1.38;0.80;;;;;;;21.40;42.88;101431.47;4615778;27;20145;-62
2023/10/06 06:04:46;;;;;;;1.70;0.70;;;;;;;21.36;42.81;101433.34;4615383;27;20033;-62
2023/10/06 06:07:01;;;;;;;1.55;0.80;;;;;;;21.40;42.71;101436.34;4613410;27;20057;-61
2023/10/06 06:09:14;;;;;;;1.77;0.90;;;;;;;21.40;42.69;101439.22;4615240;27;20711;-61
2023/10/06 06:11:27;;;;;;;2.83;1.00;;;;;;;21.39;42.96;101432.63;4615639;27;20026;-62
2023/10/06 06:13:38;;;;;;;1.38;0.80;;;;;;;21.36;42.98;101430.47;4614471;27;20027;-62
2023/10/06 06:15:49;;;;;;;2.20;0.85;;;;;;;21.39;42.71;101437.56;4614840;27;20035;-62
2023/10/06 06:18:00;;;;;;;1.27;0.85;;;;;;;21.39;43.31;101449.06;4615023;27;20671;-61
2023/10/06 06:20:14;;;;;;;1.10;0.80;;;;;;;21.37;43.39;101443.66;4618395;27;20043;-61
2023/10/06 06:22:25;;;;;;;1.17;0.88;;;;;;;21.37;43.33;101443.66;4618029;27;20084;-61
2023/10/06 06:24:37;;;;;;;2.80;0.90;;;;;;;21.26;43.20;101425.19;4618043;27;20125;-61
2023/10/06 06:26:49;;;;;;;1.60;0.98;;;;;;;21.39;43.90;101434.69;4616720;27;20112;-62
2023/10/06 06:29:02;;;;;;;1.05;0.75;;;;;;;21.38;43.54;101438.72;4619621;27;20355;-62
2023/10/06 06:31:18;;;;;;;1.10;0.75;;;;;;;21.39;44.11;101434.69;4619971;27;20073;-62
2023/10/06 06:33:29;;;;;;;1.95;0.95;;;;;;;21.37;44.01;101437.91;4618553;27;20027;-62
2023/10/06 06:35:42;;;;;;;1.58;0.98;;;;;;;21.35;44.33;101428.81;4616993;27;20028;-61
2023/10/06 06:37:59;;;;;;;1.13;0.80;;;;;;;21.35;44.55;101425.94;4617359;27;20032;-61
2023/10/06 06:40:12;;;;;;;1.50;0.80;;;;;;;21.35;44.67;101430.81;4617936;27;20130;-61
2023/10/06 06:42:23;;;;;;;1.40;0.90;;;;;;;21.35;45.05;101425.94;4614617;27;20036;-62
2023/10/06 06:44:34;;;;;;;1.33;0.80;;;;;;;21.36;45.09;101441.97;4618660;27;20035;-62
2023/10/06 06:46:44;;;;;;;1.75;0.75;;;;;;;21.36;44.78;101435.41;4617900;27;20031;-62
2023/10/06 06:48:56;;;;;;;1.67;1.00;;;;;;;21.37;45.01;101439.94;4618671;27;20023;-61
2023/10/06 06:51:06;;;;;;;1.20;0.90;;;;;;;21.35;45.29;101433.69;4617228;27;20859;-62
2023/10/06 06:53:18;;;;;;;1.40;0.90;;;;;;;21.25;45.15;101419.81;4617099;27;20035;-61
2023/10/06 06:55:29;;;;;;;1.45;1.00;;;;;;;21.34;45.56;101437.78;4617202;27;20028;-62
2023/10/06 06:57:43;;;;;;;1.45;0.85;;;;;;;21.36;45.79;101447.72;4617664;27;20035;-62
2023/10/06 06:59:53;;;;;;;1.83;1.08;;;;;;;21.35;45.79;101446.03;4615638;27;20034;-62
2023/10/06 07:02:04;;;;;;;1.98;1.00;;;;;;;21.34;45.67;101441.50;4604742;27;20392;-62
2023/10/06 07:04:16;;;;;;;1.05;0.80;;;;;;;21.32;45.74;101426.66;4605957;27;20031;-62
2023/10/06 07:06:27;;;;;;;1.58;1.02;;;;;;;21.35;45.61;101434.56;4616052;27;20022;-62
2023/10/06 07:08:37;;;;;;;1.48;0.82;;;;;;;21.32;45.86;101432.38;4617827;27;20039;-62
2023/10/06 07:10:52;;;;;;;1.38;0.95;;;;;;;21.34;45.74;101435.75;4618188;27;20102;-62
2023/10/06 07:13:03;;;;;;;1.80;1.00;;;;;;;21.33;45.95;101433.19;4616733;27;20138;-62
2023/10/06 07:15:17;;;;;;;1.23;0.85;;;;;;;21.33;45.56;101431.19;4616022;27;20725;-62
2023/10/06 07:17:28;;;;;;;1.20;0.95;;;;;;;21.24;45.86;101421.81;4617276;27;20027;-62
2023/10/06 07:19:38;;;;;;;1.55;1.08;;;;;;;21.32;45.87;101432.38;4617052;27;20923;-62
2023/10/06 07:21:49;;;;;;;1.48;1.00;;;;;;;21.34;45.96;101438.63;4617300;27;20078;-62
2023/10/06 07:24:00;;;;;;;1.15;0.80;;;;;;;21.32;45.89;101431.53;4617096;27;20031;-62
2023/10/06 07:26:11;;;;;;;0.70;0.70;;;;;;;21.34;45.57;101449.25;4617032;27;20376;-62
2023/10/06 07:28:22;;;;;;;1.13;0.70;;;;;;;21.32;45.62;101445.91;4617259;27;20023;-62
2023/10/06 07:30:34;;;;;;;1.40;0.80;;;;;;;21.32;45.85;101443.03;4617071;27;20432;-62
2023/10/06 07:32:46;;;;;;;1.60;0.80;;;;;;;21.30;45.53;101445.41;4615681;27;20082;-62
2023/10/06 07:34:57;;;;;;;1.70;0.90;;;;;;;21.33;46.00;101447.56;4617231;27;20122;-62
2023/10/06 07:37:07;;;;;;;2.35;0.82;;;;;;;21.32;45.94;101445.91;4617870;27;20072;-62
2023/10/06 07:39:20;;;;;;;1.70;0.90;;;;;;;21.30;45.56;101443.38;4616995;27;20031;-62
2023/10/06 07:41:31;;;;;;;0.93;0.70;;;;;;;21.27;45.83;101426.00;4616125;27;20043;-62
2023/10/06 07:43:41;;;;;;;1.10;0.80;;;;;;;21.32;45.87;101435.25;4618263;27;20035;-62
2023/10/06 07:45:51;;;;;;;1.73;0.73;;;;;;;21.32;45.62;101443.03;4616018;27;20023;-62
2023/10/06 07:48:05;;;;;;;1.15;0.82;;;;;;;21.32;45.71;101441.00;4615408;27;20047;-62
2023/10/06 07:50:16;;;;;;;1.10;0.70;;;;;;;21.30;46.08;101442.53;4616906;27;20027;-62
2023/10/06 07:52:26;;;;;;;2.08;0.85;;;;;;;21.32;46.22;101441.00;4617403;27;21030;-62
2023/10/06 07:54:36;;;;;;;1.23;0.90;;;;;;;21.29;46.42;101435.97;4617283;27;20056;-62
2023/10/06 07:56:47;;;;;;;0.93;0.70;;;;;;;21.30;46.26;101433.91;4616125;27;20377;-62
2023/10/06 07:58:58;;;;;;;1.88;0.90;;;;;;;21.31;46.18;101439.31;4615304;27;20027;-62
2023/10/06 08:01:10;;;;;;;1.23;0.90;;;;;;;21.31;45.90;101432.75;4614903;27;20149;-62
2023/10/06 08:03:21;;;;;;;0.98;0.70;;;;;;;21.30;46.03;101431.03;4614020;27;20023;-62
2023/10/06 08:05:31;;;;;;;2.25;0.80;;;;;;;21.30;46.10;101433.91;4616189;27;20475;-62
2023/10/06 08:07:43;;;;;;;1.45;0.90;;;;;;;21.27;45.82;101426.00;4616059;27;20023;-62
2023/10/06 08:10:05;;;;;;;1.45;0.82;;;;;;;21.29;45.91;101429.38;4615777;27;20039;-62
2023/10/06 08:12:17;;;;;;;1.52;0.80;;;;;;;21.26;46.24;101415.72;4615287;27;20610;-62
2023/10/06 08:14:28;;;;;;;1.15;0.70;;;;;;;21.30;46.75;101425.28;4615940;27;20613;-62
2023/10/06 08:16:40;;;;;;;1.52;0.80;;;;;;;21.29;46.55;101413.00;4615541;27;20100;-62
2023/10/06 08:18:50;;;;;;;1.42;0.80;;;;;;;21.29;46.70;101418.72;4616271;27;20129;-62
2023/10/06 08:21:01;;;;;;;1.60;0.82;;;;;;;21.28;46.44;101417.03;4615004;27;20027;-62
2023/10/06 08:23:12;;;;;;;1.80;0.90;;;;;;;21.29;46.59;101415.88;4616039;27;20481;-62
2023/10/06 08:25:25;;;;;;;1.05;0.80;;;;;;;21.29;46.68;101412.16;4616253;27;20439;-62
2023/10/06 08:27:35;;;;;;;1.27;0.80;;;;;;;21.24;46.86;101416.06;4614824;27;20035;-62
2023/10/06 08:29:46;;;;;;;2.05;0.80;;;;;;;21.29;46.98;101418.72;4616480;27;20410;-62
2023/10/06 08:31:57;;;;;;;1.05;0.90;;;;;;;21.28;46.68;101410.47;4616290;27;20116;-62
2023/10/06 08:34:08;;;;;;;1.58;0.73;;;;;;;21.28;46.86;101411.28;4616429;27;20027;-62
2023/10/06 08:36:18;;;;;;;1.70;0.77;;;;;;;21.26;46.85;101402.22;4617101;27;20479;-62
2023/10/06 08:38:30;;;;;;;1.35;0.73;;;;;;;21.24;46.98;101393.09;4615131;27;20035;-62
2023/10/06 08:40:44;;;;;;;0.90;0.70;;;;;;;21.29;46.71;101401.50;4615122;27;20040;-62
2023/10/06 08:42:56;;;;;;;1.10;0.70;;;;;;;21.21;46.43;101388.06;4616557;27;20027;-62
2023/10/06 08:45:07;;;;;;;1.50;0.80;;;;;;;21.28;46.73;101401.88;4613899;27;20041;-62
2023/10/06 08:47:19;;;;;;;1.48;0.77;;;;;;;21.26;46.53;101392.75;4615802;27;20031;-62
2023/10/06 08:49:32;;;;;;;1.50;0.70;;;;;;;21.27;46.38;101398.13;4612458;27;20078;-62
2023/10/06 08:51:50;;;;;;;0.73;0.70;;;;;;;21.28;46.40;101396.94;4615263;27;20031;-62
2023/10/06 08:54:04;;;;;;;1.20;0.70;;;;;;;21.26;46.67;101396.47;4616882;27;20122;-62
2023/10/06 08:56:15;;;;;;;0.85;0.70;;;;;;;21.28;46.96;101402.69;4621214;27;20069;-62
2023/10/06 08:58:26;;;;;;;1.50;0.80;;;;;;;21.26;47.02;101398.50;4615744;27;20470;-62
2023/10/06 09:00:37;;;;;;;0.95;0.60;;;;;;;21.28;46.67;101405.56;4615275;27;20033;-62
2023/10/06 09:02:54;;;;;;;1.60;0.70;;;;;;;21.29;47.27;101420.75;4615004;27;20092;-62
2023/10/06 09:05:11;;;;;;;0.80;0.60;;;;;;;21.26;47.27;101401.38;4616512;27;20035;-62
2023/10/06 09:07:22;;;;;;;1.00;0.70;;;;;;;21.24;47.36;101404.59;4615938;27;20031;-62
2023/10/06 09:09:32;;;;;;;0.88;0.60;;;;;;;21.26;47.12;101407.97;4614958;27;20467;-62
2023/10/06 09:11:43;;;;;;;0.77;0.63;;;;;;;21.21;47.39;101392.97;4616304;27;20486;-63
2023/10/06 09:14:07;;;;;;;1.45;0.73;;;;;;;21.28;47.32;101408.41;4615725;27;20036;-62
2023/10/06 09:16:18;;;;;;;1.35;0.80;;;;;;;21.19;47.42;101401.94;4613787;27;20155;-62
2023/10/06 09:18:29;;;;;;;1.42;0.70;;;;;;;21.26;46.80;101407.97;4613931;27;20137;-62
2023/10/06 09:20:40;;;;;;;1.38;0.65;;;;;;;21.29;46.53;101412.16;4614978;27;20046;-62
2023/10/06 09:22:50;;;;;;;2.00;0.80;;;;;;;21.25;46.25;101400.50;4615483;27;20022;-62
2023/10/06 09:25:04;;;;;;;1.55;0.90;;;;;;;21.16;46.72;101378.81;4616044;27;20399;-62
2023/10/06 09:27:19;;;;;;;1.17;0.73;;;;;;;21.25;46.35;101391.91;4615633;27;20077;-62
2023/10/06 09:29:34;;;;;;;1.60;0.93;;;;;;;21.27;46.57;101392.41;4603105;27;20035;-62
2023/10/06 09:31:45;;;;;;;1.40;0.80;;;;;;;21.26;46.30;101407.97;4614360;27;20026;-62
2023/10/06 09:33:56;;;;;;;1.05;0.73;;;;;;;21.26;46.33;101395.63;4615589;27;20061;-62
2023/10/06 09:36:14;;;;;;;2.13;0.90;;;;;;;21.28;45.89;101417.03;4614309;27;20039;-62
2023/10/06 09:38:26;;;;;;;1.52;0.90;;;;;;;21.27;45.42;101403.88;4630989;27;20023;-62
2023/10/06 09:40:44;;;;;;;1.15;0.80;;;;;;;21.26;45.57;101398.50;4615915;27;20036;-62
2023/10/06 09:42:56;;;;;;;0.90;0.70;;;;;;;21.26;45.35;101405.09;4615156;27;20035;-62
2023/10/06 09:45:08;;;;;;;0.85;0.60;;;;;;;21.24;45.92;101398.84;4614937;27;20089;-62
2023/10/06 09:47:20;;;;;;;0.75;0.68;;;;;;;21.27;45.87;101398.13;4615651;27;20035;-62
2023/10/06 09:49:31;;;;;;;1.17;0.80;;;;;;;21.28;45.76;101396.94;4614396;27;20123;-62
2023/10/06 09:51:43;;;;;;;1.50;0.90;;;;;;;21.26;45.91;101399.34;4615501;27;20039;-62
2023/10/06 09:53:54;;;;;;;1.50;0.60;;;;;;;21.26;45.57;101392.75;4618018;27;20038;-62
2023/10/06 09:56:06;;;;;;;1.65;0.80;;;;;;;21.28;45.28;101391.19;4617536;27;20665;-62
2023/10/06 09:58:17;;;;;;;1.15;0.70;;;;;;;21.21;46.19;101385.19;4617202;27;20019;-62
2023/10/06 10:00:30;;;;;;;1.40;0.75;;;;;;;21.28;46.03;101381.75;4618732;27;20047;-62
2023/10/06 10:02:44;;;;;;;1.08;0.70;;;;;;;21.26;45.72;101382.13;4619386;27;21382;-62
2023/10/06 10:04:59;;;;;;;1.45;0.75;;;;;;;21.23;46.02;101377.06;4617607;27;20031;-62
2023/10/06 10:07:10;;;;;;;0.85;0.70;;;;;;;21.24;46.10;101373.00;4617829;27;20019;-62
2023/10/06 10:09:22;;;;;;;1.00;0.60;;;;;;;21.26;46.49;101379.25;4616423;27;20042;-62
2023/10/06 10:11:39;;;;;;;1.70;0.93;;;;;;;21.28;46.04;101382.59;4617718;27;20027;-62
2023/10/06 10:14:02;;;;;;;1.40;0.80;;;;;;;21.29;45.87;101378.53;4634572;27;20035;-62
2023/10/06 10:16:31;;;;;;;1.83;0.80;;;;;;;21.28;46.14;101388.31;4617306;27;20043;-62
2023/10/06 10:18:52;;;;;;;1.00;0.75;;;;;;;21.20;46.36;101377.75;4616786;27;20634;-62